createdAt,value
2019-01-14T00:00:37.222Z,9.52
2019-01-14T00:03:06.536Z,9.47
2019-01-14T00:05:35.683Z,9.43
2019-01-14T00:08:04.919Z,9.38
2019-01-14T00:10:34.242Z,9.36
2019-01-14T00:13:03.416Z,9.33
2019-01-14T00:15:32.613Z,9.30
2019-01-14T00:18:01.757Z,9.27
2019-01-14T00:20:30.886Z,9.26
2019-01-14T00:23:00.244Z,9.28
2019-01-14T00:25:29.347Z,9.31
2019-01-14T00:27:58.843Z,9.35
2019-01-14T00:30:28.008Z,9.40
2019-01-14T00:32:57.042Z,9.44
2019-01-14T00:35:26.110Z,9.48
2019-01-14T00:37:55.228Z,9.50
2019-01-14T00:40:24.322Z,9.53
2019-01-14T00:42:53.489Z,9.54
2019-01-14T00:45:22.551Z,9.56
2019-01-14T00:47:51.609Z,9.59
2019-01-14T00:50:20.832Z,9.61
2019-01-14T00:52:49.887Z,9.65
2019-01-14T00:55:18.994Z,9.67
2019-01-14T00:57:48.083Z,9.68
2019-01-14T01:00:20.273Z,9.68
2019-01-14T01:02:49.596Z,9.67
2019-01-14T01:05:18.820Z,9.65
2019-01-14T01:07:48.821Z,9.60
2019-01-14T01:10:18.364Z,9.56
2019-01-14T01:12:47.595Z,9.52
2019-01-14T01:15:18.971Z,9.49
2019-01-14T01:17:48.716Z,9.50
2019-01-14T01:20:20.296Z,9.53
2019-01-14T01:22:49.466Z,9.57
2019-01-14T01:25:18.669Z,9.59
2019-01-14T01:27:49.083Z,9.59
2019-01-14T01:30:20.181Z,9.60
2019-01-14T01:32:50.237Z,9.62
2019-01-14T01:35:20.256Z,9.63
2019-01-14T01:37:49.428Z,9.64
2019-01-14T01:40:20.381Z,9.65
2019-01-14T01:42:49.613Z,9.65
2019-01-14T01:45:18.787Z,9.63
2019-01-14T01:47:48.291Z,9.65
2019-01-14T01:50:18.921Z,9.64
2019-01-14T01:52:48.003Z,9.65
2019-01-14T01:55:17.154Z,9.66
2019-01-14T01:57:46.510Z,9.67
2019-01-14T02:00:19.166Z,9.69
2019-01-14T02:02:48.473Z,9.71
2019-01-14T02:05:17.844Z,9.71
2019-01-14T02:07:47.574Z,9.70
2019-01-14T02:10:18.878Z,9.69
2019-01-14T02:12:48.237Z,9.68
2019-01-14T02:15:17.693Z,9.68
2019-01-14T02:17:47.076Z,9.68
2019-01-14T02:20:17.233Z,9.67
2019-01-14T02:22:46.379Z,9.65
2019-01-14T02:25:17.552Z,9.63
2019-01-14T02:27:47.813Z,9.62
2019-01-14T02:30:19.095Z,9.62
2019-01-14T02:32:48.377Z,9.62
2019-01-14T02:35:17.517Z,9.62
2019-01-14T02:37:46.568Z,9.58
2019-01-14T02:40:17.830Z,9.53
2019-01-14T02:42:47.627Z,9.49
2019-01-14T02:45:16.887Z,9.48
2019-01-14T02:47:46.092Z,9.50
2019-01-14T02:50:15.344Z,9.53
2019-01-14T02:52:44.537Z,9.56
2019-01-14T02:55:13.907Z,9.59
2019-01-14T02:57:43.028Z,9.63
2019-01-14T03:00:18.636Z,9.64
2019-01-14T03:02:48.390Z,9.66
2019-01-14T03:05:18.334Z,9.67
2019-01-14T03:07:47.662Z,9.67
2019-01-14T03:10:16.902Z,9.69
2019-01-14T03:12:45.997Z,9.69
2019-01-14T03:15:15.938Z,9.70
2019-01-14T03:17:45.247Z,9.71
2019-01-14T03:20:15.281Z,9.72
2019-01-14T03:22:44.411Z,9.72
2019-01-14T03:25:14.426Z,9.73
2019-01-14T03:27:43.657Z,9.72
2019-01-14T03:30:15.347Z,9.71
2019-01-14T03:32:44.513Z,9.68
2019-01-14T03:35:13.703Z,9.66
2019-01-14T03:37:42.900Z,9.65
2019-01-14T03:40:14.916Z,9.64
2019-01-14T03:42:44.058Z,9.62
2019-01-14T03:45:14.200Z,9.59
2019-01-14T03:47:43.310Z,9.56
2019-01-14T03:50:21.714Z,9.50
2019-01-14T03:52:51.027Z,9.46
2019-01-14T03:55:22.140Z,9.41
2019-01-14T03:57:52.489Z,9.36
2019-01-14T04:00:21.598Z,9.33
2019-01-14T04:02:50.712Z,9.31
2019-01-14T04:05:20.079Z,9.30
2019-01-14T04:07:49.213Z,9.29
2019-01-14T04:10:18.688Z,9.30
2019-01-14T04:12:47.935Z,9.31
2019-01-14T04:15:18.708Z,9.33
2019-01-14T04:17:47.966Z,9.35
2019-01-14T04:20:18.335Z,9.36
2019-01-14T04:22:48.573Z,9.37
2019-01-14T04:25:17.834Z,9.40
2019-01-14T04:27:47.036Z,9.40
2019-01-14T04:30:18.832Z,9.42
2019-01-14T04:32:47.976Z,9.42
2019-01-14T04:35:17.744Z,9.44
2019-01-14T04:37:47.900Z,9.44
2019-01-14T04:40:17.067Z,9.45
2019-01-14T04:42:46.132Z,9.46
2019-01-14T04:45:15.414Z,9.47
2019-01-14T04:47:44.710Z,9.47
2019-01-14T04:50:16.007Z,9.48
2019-01-14T04:52:45.054Z,9.49
2019-01-14T04:55:14.129Z,9.49
2019-01-14T04:57:43.274Z,9.50
2019-01-14T05:00:16.002Z,9.50
2019-01-14T05:02:45.159Z,9.51
2019-01-14T05:05:14.396Z,9.50
2019-01-14T05:07:43.515Z,9.49
2019-01-14T05:10:13.119Z,9.48
2019-01-14T05:12:42.266Z,9.47
2019-01-14T05:15:12.034Z,9.45
2019-01-14T05:17:41.152Z,9.46
2019-01-14T05:20:14.676Z,9.45
2019-01-14T05:22:43.768Z,9.45
2019-01-14T05:25:12.948Z,9.42
2019-01-14T05:27:42.063Z,9.40
2019-01-14T05:30:11.718Z,9.38
2019-01-14T05:32:40.930Z,9.37
2019-01-14T05:35:11.531Z,9.35
2019-01-14T05:37:40.695Z,9.35
2019-01-14T05:40:13.977Z,9.35
2019-01-14T05:42:43.059Z,9.37
2019-01-14T05:45:12.244Z,9.37
2019-01-14T05:47:41.444Z,9.37
2019-01-14T05:50:11.852Z,9.37
2019-01-14T05:52:41.232Z,9.39
2019-01-14T05:55:10.517Z,9.40
2019-01-14T05:57:39.772Z,9.40
2019-01-14T06:00:16.612Z,9.39
2019-01-14T06:02:45.737Z,9.40
2019-01-14T06:05:14.837Z,9.41
2019-01-14T06:07:44.991Z,9.40
2019-01-14T06:10:13.186Z,9.41
2019-01-14T06:12:42.385Z,9.40
2019-01-14T06:15:11.932Z,9.40
2019-01-14T06:17:41.053Z,9.42
2019-01-14T06:20:12.391Z,9.41
2019-01-14T06:22:41.485Z,9.41
2019-01-14T06:25:11.592Z,9.42
2019-01-14T06:27:40.787Z,9.43
2019-01-14T06:30:17.104Z,9.42
2019-01-14T06:32:46.248Z,9.43
2019-01-14T06:35:16.254Z,9.42
2019-01-14T06:37:52.079Z,9.42
2019-01-14T06:40:15.997Z,9.41
2019-01-14T06:42:55.759Z,9.40
2019-01-14T06:45:24.926Z,9.39
2019-01-14T06:47:54.178Z,9.35
2019-01-14T06:50:23.856Z,9.30
2019-01-14T06:52:53.067Z,9.27
2019-01-14T06:55:22.187Z,9.23
2019-01-14T06:57:51.944Z,9.20
2019-01-14T07:00:23.911Z,9.16
2019-01-14T07:02:53.223Z,9.13
2019-01-14T07:05:24.849Z,9.11
2019-01-14T07:07:59.502Z,9.08
2019-01-14T07:10:28.262Z,9.08
2019-01-14T07:12:57.276Z,9.06
2019-01-14T07:15:27.307Z,9.05
2019-01-14T07:17:57.224Z,9.03
2019-01-14T07:20:27.183Z,9.04
2019-01-14T07:22:56.278Z,9.04
2019-01-14T07:25:25.356Z,9.03
2019-01-14T07:27:54.549Z,9.05
2019-01-14T07:30:23.765Z,9.05
2019-01-14T07:32:53.867Z,9.08
2019-01-14T07:35:23.159Z,9.11
2019-01-14T07:37:52.354Z,9.13
2019-01-14T07:40:22.354Z,9.16
2019-01-14T07:42:52.926Z,9.16
2019-01-14T07:45:22.108Z,9.16
2019-01-14T07:47:51.234Z,9.17
2019-01-14T07:50:22.517Z,9.15
2019-01-14T07:52:51.703Z,9.13
2019-01-14T07:55:21.671Z,9.11
2019-01-14T07:57:50.808Z,9.08
2019-01-14T08:00:22.309Z,9.07
2019-01-14T08:02:51.845Z,9.07
2019-01-14T08:05:21.151Z,9.07
2019-01-14T08:07:50.351Z,9.08
2019-01-14T08:10:20.427Z,9.09
2019-01-14T08:12:49.593Z,9.07
2019-01-14T08:15:20.475Z,9.05
2019-01-14T08:17:49.572Z,9.04
2019-01-14T08:20:18.940Z,9.04
2019-01-14T08:22:49.110Z,9.08
2019-01-14T08:25:18.321Z,9.12
2019-01-14T08:27:47.521Z,9.15
2019-01-14T08:30:18.817Z,9.19
2019-01-14T08:32:47.998Z,9.21
2019-01-14T08:35:17.716Z,9.25
2019-01-14T08:37:47.036Z,9.28
2019-01-14T08:40:17.967Z,9.30
2019-01-14T08:42:48.968Z,9.34
2019-01-14T08:45:18.071Z,9.36
2019-01-14T08:47:47.581Z,9.39
2019-01-14T08:50:18.952Z,9.43
2019-01-14T08:52:48.399Z,9.47
2019-01-14T08:55:18.859Z,9.49
2019-01-14T08:57:54.481Z,9.52
2019-01-14T09:00:19.489Z,9.52
2019-01-14T09:02:51.473Z,9.53
2019-01-14T09:05:20.807Z,9.54
2019-01-14T09:07:50.286Z,9.56
2019-01-14T09:10:31.664Z,9.55
2019-01-14T09:13:09.000Z,9.57
2019-01-14T09:15:38.400Z,9.58
2019-01-14T09:20:41.848Z,9.61
2019-01-14T09:23:11.116Z,9.63
2019-01-14T09:25:40.270Z,9.63
2019-01-14T09:28:10.485Z,9.64
2019-01-14T09:30:40.067Z,9.66
2019-01-14T09:33:09.354Z,9.67
2019-01-14T09:35:39.461Z,9.67
2019-01-14T09:38:09.837Z,9.69
2019-01-14T09:40:39.332Z,9.71
2019-01-14T09:43:08.981Z,9.72
2019-01-14T09:45:42.443Z,9.73
2019-01-14T09:48:11.491Z,9.76
2019-01-14T09:50:40.568Z,9.77
2019-01-14T09:53:09.723Z,9.80
2019-01-14T09:55:38.980Z,9.82
2019-01-14T09:58:09.151Z,9.84
2019-01-14T10:00:45.288Z,9.87
2019-01-14T10:03:14.486Z,9.88
2019-01-14T10:05:46.533Z,9.90
2019-01-14T10:08:18.028Z,9.90
2019-01-14T10:10:47.533Z,9.89
2019-01-14T10:13:17.180Z,9.91
2019-01-14T10:15:47.002Z,9.93
2019-01-14T10:18:17.609Z,9.97
2019-01-14T10:20:46.976Z,10.00
2019-01-14T10:23:16.432Z,10.03
2019-01-14T10:25:46.472Z,10.04
2019-01-14T10:28:15.681Z,10.07
2019-01-14T10:30:46.286Z,10.09
2019-01-14T10:33:16.115Z,10.08
2019-01-14T10:35:46.032Z,10.09
2019-01-14T10:38:15.646Z,10.11
2019-01-14T10:40:45.361Z,10.12
2019-01-14T10:43:14.652Z,10.13
2019-01-14T10:45:44.721Z,10.15
2019-01-14T10:48:14.075Z,10.16
2019-01-14T10:50:43.347Z,10.18
2019-01-14T10:53:12.662Z,10.19
2019-01-14T10:55:42.711Z,10.22
2019-01-14T10:58:12.801Z,10.22
2019-01-14T11:00:48.519Z,10.22
2019-01-14T11:03:18.429Z,10.22
2019-01-14T11:05:47.867Z,10.22
2019-01-14T11:08:17.123Z,10.21
2019-01-14T11:10:52.626Z,10.22
2019-01-14T11:13:21.704Z,10.24
2019-01-14T11:15:50.866Z,10.26
2019-01-14T11:18:20.248Z,10.27
2019-01-14T11:20:50.694Z,10.29
2019-01-14T11:23:20.085Z,10.29
2019-01-14T11:25:50.423Z,10.29
2019-01-14T11:28:21.084Z,10.27
2019-01-14T11:30:50.352Z,10.27
2019-01-14T11:33:19.632Z,10.29
2019-01-14T11:35:49.449Z,10.30
2019-01-14T11:38:30.070Z,10.31
2019-01-14T11:41:00.675Z,10.32
2019-01-14T11:43:30.054Z,10.33
2019-01-14T11:45:59.155Z,10.33
2019-01-14T11:48:28.266Z,10.34
2019-01-14T11:50:57.431Z,10.33
2019-01-14T11:53:26.737Z,10.35
2019-01-14T11:55:55.956Z,10.34
2019-01-14T11:58:25.133Z,10.31
2019-01-14T12:00:54.471Z,10.33
2019-01-14T12:03:23.646Z,10.33
2019-01-14T12:05:54.299Z,10.35
2019-01-14T12:08:23.642Z,10.34
2019-01-14T12:10:53.576Z,10.36
2019-01-14T12:13:23.703Z,10.38
2019-01-14T12:15:52.978Z,10.39
2019-01-14T12:18:22.411Z,10.40
2019-01-14T12:20:53.043Z,10.39
2019-01-14T12:23:22.129Z,10.40
2019-01-14T12:25:51.678Z,10.42
2019-01-14T12:28:20.937Z,10.42
2019-01-14T12:30:50.215Z,10.43
2019-01-14T12:33:19.449Z,10.42
2019-01-14T12:35:48.918Z,10.42
2019-01-14T12:38:18.814Z,10.42
2019-01-14T12:40:48.307Z,10.42
2019-01-14T12:43:17.483Z,10.44
2019-01-14T12:45:46.819Z,10.45
2019-01-14T12:48:15.853Z,10.44
2019-01-14T12:50:54.462Z,10.44
2019-01-14T12:53:23.576Z,10.43
2019-01-14T12:55:53.295Z,10.42
2019-01-14T12:58:23.624Z,10.39
2019-01-14T13:00:52.742Z,10.38
2019-01-14T13:03:22.942Z,10.37
2019-01-14T13:05:57.665Z,10.36
2019-01-14T13:08:32.903Z,10.36
2019-01-14T13:11:03.895Z,10.36
2019-01-14T13:13:34.199Z,10.37
2019-01-14T13:16:03.451Z,10.38
2019-01-14T13:18:34.710Z,10.37
2019-01-14T13:21:05.634Z,10.37
2019-01-14T13:23:35.158Z,10.37
2019-01-14T13:26:05.993Z,10.38
2019-01-14T13:28:36.182Z,10.38
2019-01-14T13:31:05.462Z,10.39
2019-01-14T13:33:34.589Z,10.38
2019-01-14T13:36:04.302Z,10.38
2019-01-14T13:38:33.515Z,10.39
2019-01-14T13:41:02.684Z,10.39
2019-01-14T13:43:33.181Z,10.43
2019-01-14T13:46:02.518Z,10.44
2019-01-14T13:48:32.591Z,10.45
2019-01-14T13:51:01.749Z,10.48
2019-01-14T13:53:30.761Z,10.50
2019-01-14T13:56:00.137Z,10.54
2019-01-14T13:58:29.324Z,10.56
2019-01-14T14:00:58.526Z,10.60
2019-01-14T14:03:27.836Z,10.61
2019-01-14T14:05:57.037Z,10.61
2019-01-14T14:08:26.104Z,10.62
2019-01-14T14:10:55.914Z,10.62
2019-01-14T14:13:25.106Z,10.61
2019-01-14T14:15:54.238Z,10.61
2019-01-14T14:18:23.546Z,10.60
2019-01-14T14:20:52.723Z,10.60
2019-01-14T14:23:23.234Z,10.60
2019-01-14T14:25:52.357Z,10.60
2019-01-14T14:28:22.249Z,10.58
2019-01-14T14:30:51.427Z,10.59
2019-01-14T14:33:20.480Z,10.59
2019-01-14T14:35:50.830Z,10.57
2019-01-14T14:38:19.627Z,10.56
2019-01-14T14:40:50.301Z,10.52
2019-01-14T14:43:19.648Z,10.51
2019-01-14T14:48:14.195Z,10.47
2019-01-14T14:50:46.382Z,10.46
2019-01-14T14:53:15.851Z,10.43
2019-01-14T14:55:45.261Z,10.43
2019-01-14T14:58:21.856Z,10.42
2019-01-14T15:00:51.931Z,10.40
2019-01-14T15:03:25.290Z,10.39
2019-01-14T15:05:54.293Z,10.37
2019-01-14T15:08:23.915Z,10.35
2019-01-14T15:10:54.103Z,10.32
2019-01-14T15:13:23.585Z,10.30
2019-01-14T15:15:52.924Z,10.29
2019-01-14T15:18:23.100Z,10.27
2019-01-14T15:20:54.185Z,10.26
2019-01-14T15:23:28.082Z,10.24
2019-01-14T15:25:57.984Z,10.22
2019-01-14T15:28:27.255Z,10.22
2019-01-14T15:31:01.537Z,10.18
2019-01-14T15:33:30.747Z,10.15
2019-01-14T15:36:00.624Z,10.13
2019-01-14T15:38:30.364Z,10.11
2019-01-14T15:40:59.534Z,10.11
2019-01-14T15:43:29.380Z,10.09
2019-01-14T15:45:58.528Z,10.09
2019-01-14T15:48:31.006Z,10.09
2019-01-14T15:51:00.224Z,10.08
2019-01-14T15:53:29.808Z,10.09
2019-01-14T15:55:58.919Z,10.07
2019-01-14T15:58:28.516Z,10.05
2019-01-14T16:00:58.656Z,10.05
2019-01-14T16:03:29.711Z,10.04
2019-01-14T16:05:58.773Z,10.02
2019-01-14T16:08:28.794Z,9.99
2019-01-14T16:10:58.689Z,9.98
2019-01-14T16:13:27.883Z,9.98
2019-01-14T16:15:57.121Z,9.96
2019-01-14T16:18:26.219Z,9.96
2019-01-14T16:20:55.356Z,9.95
2019-01-14T16:23:27.090Z,9.95
2019-01-14T16:25:56.437Z,9.95
2019-01-14T16:28:26.222Z,9.93
2019-01-14T16:30:55.532Z,9.91
2019-01-14T16:33:24.704Z,9.88
2019-01-14T16:35:53.889Z,9.87
2019-01-14T16:38:23.139Z,9.86
2019-01-14T16:40:52.273Z,9.86
2019-01-14T16:43:21.557Z,9.84
2019-01-14T16:45:52.479Z,9.83
2019-01-14T16:48:21.790Z,9.82
2019-01-14T16:50:51.691Z,9.84
2019-01-14T16:53:21.656Z,9.82
2019-01-14T16:55:54.400Z,9.81
2019-01-14T16:58:23.586Z,9.80
2019-01-14T17:00:52.836Z,9.77
2019-01-14T17:03:21.986Z,9.76
2019-01-14T17:05:51.251Z,9.75
2019-01-14T17:08:21.472Z,9.73
2019-01-14T17:10:50.533Z,9.72
2019-01-14T17:13:19.631Z,9.70
2019-01-14T17:15:49.526Z,9.69
2019-01-14T17:18:18.701Z,9.68
2019-01-14T17:20:47.716Z,9.66
2019-01-14T17:23:16.840Z,9.66
2019-01-14T17:25:46.012Z,9.65
2019-01-14T17:28:15.325Z,9.65
2019-01-14T17:30:44.745Z,9.64
2019-01-14T17:33:14.707Z,9.65
2019-01-14T17:35:43.875Z,9.65
2019-01-14T17:38:13.075Z,9.64
2019-01-14T17:40:42.122Z,9.61
2019-01-14T17:43:11.216Z,9.60
2019-01-14T17:45:40.333Z,9.58
2019-01-14T17:48:09.880Z,9.56
2019-01-14T17:50:38.945Z,9.57
2019-01-14T17:53:08.904Z,9.55
2019-01-14T17:55:38.257Z,9.55
2019-01-14T17:58:07.349Z,9.54
2019-01-14T18:00:36.735Z,9.55
2019-01-14T18:03:06.373Z,9.56
2019-01-14T18:05:37.102Z,9.53
2019-01-14T18:08:06.671Z,9.53
2019-01-14T18:10:39.995Z,9.51
2019-01-14T18:13:04.947Z,9.49
2019-01-14T18:15:34.046Z,9.49
2019-01-14T18:18:03.146Z,9.49
2019-01-14T18:20:32.277Z,9.49
2019-01-14T18:23:01.392Z,9.49
2019-01-14T18:25:30.453Z,9.48
2019-01-14T18:27:59.753Z,9.47
2019-01-14T18:30:29.519Z,9.45
2019-01-14T18:32:58.575Z,9.46
2019-01-14T18:35:27.733Z,9.44
2019-01-14T18:37:58.184Z,9.44
2019-01-14T18:40:33.544Z,9.43
2019-01-14T18:42:56.431Z,9.43
2019-01-14T18:45:25.445Z,9.44
2019-01-14T18:47:54.625Z,9.42
2019-01-14T18:50:24.126Z,9.40
2019-01-14T18:52:53.195Z,9.39
2019-01-14T18:55:22.290Z,9.37
2019-01-14T18:57:51.558Z,9.35
2019-01-14T19:00:22.639Z,9.35
2019-01-14T19:02:52.037Z,9.36
2019-01-14T19:05:21.080Z,9.36
2019-01-14T19:07:50.509Z,9.36
2019-01-14T19:10:20.002Z,9.36
2019-01-14T19:12:49.206Z,9.37
2019-01-14T19:15:20.095Z,9.36
2019-01-14T19:17:52.696Z,9.37
2019-01-14T19:20:25.862Z,9.36
2019-01-14T19:22:55.107Z,9.33
2019-01-14T19:25:24.230Z,9.33
2019-01-14T19:27:53.368Z,9.34
2019-01-14T19:30:22.527Z,9.36
2019-01-14T19:32:52.588Z,9.36
2019-01-14T19:35:22.188Z,9.36
2019-01-14T19:37:51.261Z,9.37
2019-01-14T19:40:21.278Z,9.36
2019-01-14T19:42:50.415Z,9.36
2019-01-14T19:45:20.639Z,9.37
2019-01-14T19:47:49.957Z,9.38
2019-01-14T19:50:23.828Z,9.37
2019-01-14T19:52:53.580Z,9.36
2019-01-14T19:55:22.750Z,9.33
2019-01-14T19:57:52.106Z,9.33
2019-01-14T20:00:25.046Z,9.32
2019-01-14T20:02:54.219Z,9.32
2019-01-14T20:05:23.303Z,9.33
2019-01-14T20:07:53.859Z,9.34
2019-01-14T20:10:22.961Z,9.34
2019-01-14T20:12:53.251Z,9.35
2019-01-14T20:15:23.303Z,9.36
2019-01-14T20:17:52.487Z,9.37
2019-01-14T20:20:22.975Z,9.37
2019-01-14T20:22:52.040Z,9.37
2019-01-14T20:25:21.186Z,9.39
2019-01-14T20:27:53.054Z,9.39
2019-01-14T20:30:23.808Z,9.39
2019-01-14T20:32:52.906Z,9.39
2019-01-14T20:35:22.046Z,9.41
2019-01-14T20:37:51.203Z,9.40
2019-01-14T20:40:20.263Z,9.39
2019-01-14T20:42:49.440Z,9.41
2019-01-14T20:45:18.520Z,9.40
2019-01-14T20:47:47.602Z,9.41
2019-01-14T20:50:18.417Z,9.40
2019-01-14T20:52:47.641Z,9.40
2019-01-14T20:55:16.694Z,9.41
2019-01-14T20:57:45.925Z,9.43
2019-01-14T21:00:17.929Z,9.43
2019-01-14T21:02:46.999Z,9.43
2019-01-14T21:05:16.251Z,9.43
2019-01-14T21:07:45.387Z,9.42
2019-01-14T21:10:14.921Z,9.44
2019-01-14T21:12:44.620Z,9.45
2019-01-14T21:15:13.946Z,9.45
2019-01-14T21:17:43.048Z,9.45
2019-01-14T21:20:15.349Z,9.45
2019-01-14T21:22:45.390Z,9.46
2019-01-14T21:25:14.973Z,9.47
2019-01-14T21:27:44.073Z,9.46
2019-01-14T21:30:16.911Z,9.47
2019-01-14T21:32:46.537Z,9.46
2019-01-14T21:35:16.262Z,9.46
2019-01-14T21:37:45.395Z,9.46
2019-01-14T21:40:14.776Z,9.48
2019-01-14T21:42:43.893Z,9.49
2019-01-14T21:45:13.504Z,9.52
2019-01-14T21:47:42.587Z,9.53
2019-01-14T21:50:15.706Z,9.54
2019-01-14T21:52:45.407Z,9.55
2019-01-14T21:55:17.021Z,9.57
2019-01-14T21:57:46.118Z,9.58
2019-01-14T22:00:17.387Z,9.58
2019-01-14T22:02:46.643Z,9.59
2019-01-14T22:05:15.730Z,9.60
2019-01-14T22:07:44.830Z,9.60
2019-01-14T22:10:16.405Z,9.59
2019-01-14T22:12:45.606Z,9.59
2019-01-14T22:15:15.665Z,9.58
2019-01-14T22:17:44.820Z,9.59
2019-01-14T22:20:17.638Z,9.58
2019-01-14T22:22:48.279Z,9.59
2019-01-14T22:25:17.426Z,9.59
2019-01-14T22:27:46.834Z,9.59
2019-01-14T22:30:18.506Z,9.60
2019-01-14T22:32:47.523Z,9.61
2019-01-14T22:35:17.002Z,9.61
2019-01-14T22:37:46.660Z,9.62
2019-01-14T22:40:16.492Z,9.62
2019-01-14T22:42:46.019Z,9.62
2019-01-14T22:45:15.180Z,9.63
2019-01-14T22:47:44.247Z,9.63
2019-01-14T22:50:15.250Z,9.62
2019-01-14T22:52:44.483Z,9.62
2019-01-14T22:55:13.566Z,9.61
2019-01-14T22:57:42.723Z,9.60
2019-01-14T23:00:26.500Z,9.59
2019-01-14T23:02:56.019Z,9.59
2019-01-14T23:05:25.101Z,9.60
2019-01-14T23:07:54.193Z,9.59
2019-01-14T23:10:24.004Z,9.58
2019-01-14T23:12:53.136Z,9.58
2019-01-14T23:15:22.218Z,9.56
2019-01-14T23:17:51.287Z,9.56
2019-01-14T23:20:20.389Z,9.53
2019-01-14T23:22:49.420Z,9.54
2019-01-14T23:25:18.486Z,9.53
2019-01-14T23:27:47.754Z,9.53
2019-01-14T23:30:17.324Z,9.53
2019-01-14T23:32:46.384Z,9.53
2019-01-14T23:35:15.379Z,9.54
2019-01-14T23:37:44.470Z,9.56
2019-01-14T23:40:13.546Z,9.56
2019-01-14T23:42:42.643Z,9.57
2019-01-14T23:45:11.774Z,9.57
2019-01-14T23:47:40.795Z,9.57
2019-01-14T23:50:10.076Z,9.58
2019-01-14T23:52:39.151Z,9.59
2019-01-14T23:55:08.244Z,9.60
2019-01-14T23:57:37.245Z,9.61
